Time;durP1;ratioP1;P1;durP2;ratioP2;P2;SDS_P1;SDS_P2;PMS_P1;PMS_P2;Temp;Humidity;BMP_temperature;BMP_pressure;BME280_temperature;BME280_humidity;BME280_pressure;Samples;Min_cycle;Max_cycle;Signal;HPM_P1;HPM_P2
2021/06/16 00:01:43;;;;;;;1.23;1.15;;;21.00;48.20;;;;;;4952868;29;20189;-82
2021/06/16 00:04:09;;;;;;;1.20;1.10;;;21.00;48.20;;;;;;4936615;29;20168;-82
2021/06/16 00:06:38;;;;;;;1.30;1.20;;;21.00;48.20;;;;;;4952763;29;20153;-82
2021/06/16 00:09:08;;;;;;;1.50;1.20;;;21.00;48.30;;;;;;4936049;29;20205;-83
2021/06/16 00:11:34;;;;;;;1.08;1.02;;;21.00;48.10;;;;;;4951942;29;20184;-82
2021/06/16 00:14:05;;;;;;;1.13;1.08;;;21.00;48.10;;;;;;4952615;29;20164;-83
2021/06/16 00:16:34;;;;;;;1.38;1.27;;;21.00;48.10;;;;;;4920075;29;20212;-82
2021/06/16 00:19:03;;;;;;;1.30;1.10;;;21.00;48.20;;;;;;4951346;29;20192;-82
2021/06/16 00:21:37;;;;;;;1.40;1.23;;;21.00;48.20;;;;;;4935171;29;20232;-82
2021/06/16 00:24:05;;;;;;;1.20;0.98;;;21.00;48.30;;;;;;4935690;29;20177;-82
2021/06/16 00:26:34;;;;;;;1.20;1.10;;;21.00;48.20;;;;;;4935070;29;20253;-82
2021/06/16 00:29:04;;;;;;;0.93;0.93;;;21.00;48.10;;;;;;4920463;29;20546;-82
2021/06/16 00:31:32;;;;;;;1.17;1.08;;;21.00;48.10;;;;;;4919986;29;20185;-82
2021/06/16 00:34:05;;;;;;;1.30;1.20;;;21.00;48.10;;;;;;4935618;29;20193;-82
2021/06/16 00:36:33;;;;;;;1.30;1.20;;;21.00;48.10;;;;;;4936073;29;20185;-83
2021/06/16 00:39:04;;;;;;;1.30;1.20;;;21.00;48.10;;;;;;4951856;29;20193;-83
2021/06/16 00:41:32;;;;;;;1.50;1.40;;;21.00;48.20;;;;;;4951918;29;20216;-82
2021/06/16 00:43:59;;;;;;;1.40;1.30;;;21.00;48.20;;;;;;4951217;29;20188;-82
2021/06/16 00:46:25;;;;;;;1.50;1.40;;;21.00;48.20;;;;;;4967894;29;20162;-82
2021/06/16 00:48:51;;;;;;;1.40;1.30;;;21.00;48.20;;;;;;4935690;28;20189;-82
2021/06/16 00:51:18;;;;;;;1.40;1.30;;;21.00;48.20;;;;;;4935935;29;20170;-82
2021/06/16 00:53:47;;;;;;;1.50;1.40;;;21.00;48.20;;;;;;4936334;29;20256;-81
2021/06/16 00:56:12;;;;;;;1.50;1.40;;;21.00;48.20;;;;;;4952077;29;20162;-81
2021/06/16 00:58:38;;;;;;;1.40;1.30;;;21.00;48.20;;;;;;4951881;29;20205;-82
2021/06/16 01:01:07;;;;;;;1.52;1.42;;;21.00;48.20;;;;;;4936081;29;20189;-81
2021/06/16 01:03:49;;;;;;;1.38;1.27;;;21.00;48.20;;;;;;4951889;29;20204;-82
2021/06/16 01:06:47;;;;;;;1.45;1.35;;;21.00;48.20;;;;;;4967611;29;20161;-82
2021/06/16 01:09:18;;;;;;;1.30;1.20;;;21.00;48.20;;;;;;4934683;29;20222;-82
2021/06/16 01:12:01;;;;;;;1.23;1.13;;;21.00;48.20;;;;;;4951511;29;20521;-82
2021/06/16 01:14:43;;;;;;;1.27;1.13;;;20.90;48.20;;;;;;4936645;29;20185;-82
2021/06/16 01:17:14;;;;;;;1.30;1.20;;;21.00;48.30;;;;;;4951314;29;20181;-82
2021/06/16 01:20:15;;;;;;;1.20;1.10;;;21.00;48.30;;;;;;4918833;29;20191;-82
2021/06/16 01:23:03;;;;;;;1.48;1.38;;;21.00;48.20;;;;;;4968337;29;20201;-82
2021/06/16 01:25:39;;;;;;;1.05;1.02;;;21.00;48.30;;;;;;4966618;29;20221;-81
2021/06/16 01:28:06;;;;;;;1.55;1.40;;;21.00;48.30;;;;;;4936392;29;20192;-82
2021/06/16 01:30:32;;;;;;;1.27;1.17;;;21.00;48.30;;;;;;4951837;29;20176;-82
2021/06/16 01:32:57;;;;;;;1.27;1.17;;;21.00;48.30;;;;;;4951007;29;20529;-82
2021/06/16 01:35:24;;;;;;;1.40;1.30;;;21.00;48.40;;;;;;4935295;29;20184;-81
2021/06/16 01:37:51;;;;;;;0.90;0.90;;;21.00;48.30;;;;;;4951578;29;20169;-82
2021/06/16 01:40:20;;;;;;;1.17;1.08;;;20.90;48.30;;;;;;4951396;29;20161;-82
2021/06/16 01:42:46;;;;;;;1.40;1.30;;;21.00;48.30;;;;;;4935139;29;20193;-81
2021/06/16 01:45:12;;;;;;;1.40;1.30;;;21.00;48.40;;;;;;4935274;29;20166;-82
2021/06/16 01:47:38;;;;;;;1.27;1.17;;;21.00;48.50;;;;;;4966682;29;20609;-82
2021/06/16 01:50:05;;;;;;;1.27;1.00;;;21.00;48.40;;;;;;4934707;29;20241;-82
2021/06/16 01:52:31;;;;;;;1.30;1.20;;;20.90;48.40;;;;;;4935381;29;20288;-82
2021/06/16 01:54:59;;;;;;;1.48;1.38;;;20.90;48.40;;;;;;4950790;29;20208;-82
2021/06/16 01:57:26;;;;;;;1.77;1.30;;;21.00;48.40;;;;;;4934939;29;20193;-82
2021/06/16 01:59:55;;;;;;;1.38;1.27;;;20.90;49.00;;;;;;4949457;29;20196;-82
2021/06/16 02:02:25;;;;;;;1.35;1.15;;;20.90;48.40;;;;;;4949583;29;20684;-82
2021/06/16 02:04:52;;;;;;;1.33;1.23;;;20.80;48.30;;;;;;4950167;29;20181;-82
2021/06/16 02:07:22;;;;;;;1.50;1.40;;;20.90;48.60;;;;;;4933929;29;20192;-81
2021/06/16 02:09:50;;;;;;;1.27;1.17;;;20.90;48.50;;;;;;4935067;29;20212;-82
2021/06/16 02:12:21;;;;;;;1.40;1.30;;;20.90;48.50;;;;;;4933989;29;20244;-82
2021/06/16 02:14:56;;;;;;;1.30;1.20;;;21.00;48.50;;;;;;4950342;29;20560;-82
2021/06/16 02:17:23;;;;;;;1.52;1.42;;;20.90;48.50;;;;;;4935023;29;20220;-82
2021/06/16 02:19:55;;;;;;;1.20;1.10;;;20.90;48.50;;;;;;4934040;29;20192;-82
2021/06/16 02:22:29;;;;;;;1.20;1.10;;;21.00;48.50;;;;;;4949923;29;20300;-82
2021/06/16 02:24:55;;;;;;;1.13;1.05;;;21.00;48.50;;;;;;4949626;29;20216;-82
2021/06/16 02:27:21;;;;;;;1.45;1.35;;;21.00;48.50;;;;;;4950184;29;20180;-82
2021/06/16 02:29:47;;;;;;;2.42;1.27;;;20.90;48.50;;;;;;4950374;29;20174;-82
2021/06/16 02:32:15;;;;;;;1.30;1.20;;;20.90;48.60;;;;;;4966217;29;20185;-81
2021/06/16 02:34:41;;;;;;;1.50;1.40;;;20.90;48.50;;;;;;4966214;29;20240;-81
2021/06/16 02:37:14;;;;;;;1.45;1.27;;;21.00;48.50;;;;;;4934214;29;20158;-81
2021/06/16 02:39:44;;;;;;;1.10;1.00;;;20.90;48.50;;;;;;4966351;29;20221;-81
2021/06/16 02:42:11;;;;;;;1.20;1.10;;;20.90;48.50;;;;;;4966018;29;20208;-81
2021/06/16 02:44:41;;;;;;;1.17;1.08;;;20.90;48.50;;;;;;4949548;29;20254;-82
2021/06/16 02:47:09;;;;;;;1.10;1.00;;;21.00;48.50;;;;;;4951123;29;20180;-82
2021/06/16 02:49:39;;;;;;;1.30;1.20;;;21.00;48.50;;;;;;4965320;29;20520;-82
2021/06/16 02:52:06;;;;;;;1.30;1.20;;;21.00;48.50;;;;;;4934209;29;20162;-82
2021/06/16 02:54:35;;;;;;;1.80;1.40;;;20.90;48.50;;;;;;4950272;29;20181;-82
2021/06/16 02:57:02;;;;;;;1.30;1.20;;;21.00;48.60;;;;;;4950505;29;20172;-82
2021/06/16 02:59:28;;;;;;;1.50;1.30;;;20.90;48.50;;;;;;4933809;29;20530;-82
2021/06/16 03:01:58;;;;;;;1.20;1.10;;;20.90;48.60;;;;;;4949572;29;20232;-83
2021/06/16 03:04:25;;;;;;;1.20;1.10;;;20.90;48.60;;;;;;4933570;29;20269;-82
2021/06/16 03:06:56;;;;;;;1.63;1.30;;;20.90;48.60;;;;;;4949854;29;20169;-82
2021/06/16 03:09:23;;;;;;;1.38;1.27;;;20.90;48.60;;;;;;4932990;29;20575;-82
2021/06/16 03:11:54;;;;;;;1.52;1.20;;;20.90;48.60;;;;;;4965812;29;20162;-82
2021/06/16 03:14:23;;;;;;;1.13;1.02;;;21.00;48.60;;;;;;4951128;29;20185;-82
2021/06/16 03:16:50;;;;;;;1.40;1.30;;;21.00;48.60;;;;;;4938273;29;20652;-82
2021/06/16 03:19:16;;;;;;;1.40;1.30;;;21.00;48.50;;;;;;4969419;29;20176;-82
2021/06/16 03:21:43;;;;;;;1.10;1.00;;;21.00;49.20;;;;;;4937275;29;20217;-83
2021/06/16 03:24:09;;;;;;;1.40;1.25;;;20.90;48.50;;;;;;4953672;29;20169;-82
2021/06/16 03:26:36;;;;;;;1.42;1.33;;;21.00;48.50;;;;;;4953260;29;20209;-82
2021/06/16 03:29:02;;;;;;;1.02;0.98;;;21.00;48.40;;;;;;4952956;29;20166;-82
2021/06/16 03:31:28;;;;;;;1.40;1.30;;;21.00;48.40;;;;;;4953132;29;20254;-82
2021/06/16 03:33:55;;;;;;;1.50;1.40;;;21.00;48.30;;;;;;4952770;29;20164;-82
2021/06/16 03:36:21;;;;;;;1.30;1.20;;;21.00;48.30;;;;;;4952879;29;20231;-82
2021/06/16 03:38:48;;;;;;;1.20;1.10;;;21.00;48.20;;;;;;4953052;29;20173;-83
2021/06/16 03:41:14;;;;;;;1.45;1.35;;;21.00;48.30;;;;;;4936574;29;20200;-82
2021/06/16 03:43:41;;;;;;;1.27;1.17;;;21.10;48.40;;;;;;4953687;29;20185;-83
2021/06/16 03:46:10;;;;;;;1.40;1.30;;;21.00;48.30;;;;;;4937321;29;20169;-82
2021/06/16 03:48:36;;;;;;;1.20;1.10;;;21.10;48.30;;;;;;4952419;29;20165;-81
2021/06/16 03:51:04;;;;;;;1.60;1.30;;;21.10;48.30;;;;;;4968835;29;20189;-82
2021/06/16 03:53:29;;;;;;;1.42;1.30;;;21.10;48.30;;;;;;4952904;29;20174;-82
2021/06/16 03:55:56;;;;;;;1.23;1.10;;;21.10;48.30;;;;;;4952994;29;20196;-82
2021/06/16 03:58:22;;;;;;;1.33;1.23;;;21.10;48.20;;;;;;4953225;29;20526;-82
2021/06/16 04:00:49;;;;;;;1.40;1.30;;;21.10;48.20;;;;;;4953128;29;20216;-82
2021/06/16 04:03:16;;;;;;;1.83;1.23;;;21.20;48.10;;;;;;4937218;29;20541;-81
2021/06/16 04:05:42;;;;;;;1.30;1.20;;;21.20;48.10;;;;;;4968802;29;20190;-83
2021/06/16 04:08:10;;;;;;;1.40;1.30;;;21.20;48.10;;;;;;4967819;29;20154;-82
2021/06/16 04:10:42;;;;;;;1.30;1.20;;;21.20;48.20;;;;;;4936408;29;20193;-82
2021/06/16 04:13:12;;;;;;;1.30;1.20;;;21.20;48.20;;;;;;4919352;29;20684;-81
2021/06/16 04:15:39;;;;;;;1.10;1.08;;;21.20;48.20;;;;;;4950790;29;20212;-83
2021/06/16 04:18:09;;;;;;;0.93;0.93;;;21.20;48.30;;;;;;4950994;29;20170;-82
2021/06/16 04:20:38;;;;;;;1.25;1.15;;;21.30;48.40;;;;;;4951203;29;20240;-84
2021/06/16 04:23:04;;;;;;;1.15;1.05;;;21.20;48.30;;;;;;4935180;29;20177;-83
2021/06/16 04:25:29;;;;;;;1.77;1.15;;;21.20;48.30;;;;;;4951151;29;20252;-82
2021/06/16 04:27:56;;;;;;;1.25;1.15;;;21.20;48.30;;;;;;4967151;29;20589;-83
2021/06/16 04:30:22;;;;;;;1.20;1.10;;;21.20;48.40;;;;;;4951574;29;20536;-83
2021/06/16 04:32:49;;;;;;;1.40;1.30;;;21.20;48.40;;;;;;4936006;29;20255;-83
2021/06/16 04:35:15;;;;;;;1.17;1.08;;;21.20;48.30;;;;;;4950933;29;20141;-83
2021/06/16 04:37:44;;;;;;;1.20;1.10;;;21.20;48.40;;;;;;4967104;29;20226;-82
2021/06/16 04:40:10;;;;;;;1.60;1.20;;;21.10;48.40;;;;;;4968778;29;20158;-82
2021/06/16 04:42:36;;;;;;;1.42;1.33;;;21.30;48.40;;;;;;4966453;29;20193;-83
2021/06/16 04:45:03;;;;;;;1.02;1.00;;;21.20;48.20;;;;;;4967335;29;20197;-83
2021/06/16 04:47:29;;;;;;;1.10;1.00;;;21.40;48.10;;;;;;4935875;29;20184;-82
2021/06/16 04:49:56;;;;;;;1.23;1.20;;;21.30;48.10;;;;;;4950561;29;20161;-83
2021/06/16 04:52:22;;;;;;;1.30;1.20;;;21.30;48.20;;;;;;4967476;29;20185;-83
2021/06/16 04:54:51;;;;;;;1.33;1.23;;;21.30;48.30;;;;;;4935937;29;20177;-83
2021/06/16 04:57:18;;;;;;;1.25;1.15;;;21.30;48.20;;;;;;4919025;29;20260;-84
2021/06/16 04:59:45;;;;;;;1.00;1.00;;;21.30;48.30;;;;;;4951393;29;20173;-82
2021/06/16 05:02:14;;;;;;;1.13;1.08;;;21.30;48.20;;;;;;4968181;29;20189;-82
2021/06/16 05:04:46;;;;;;;0.93;0.93;;;21.40;48.00;;;;;;4951600;29;20266;-83
2021/06/16 05:07:15;;;;;;;1.58;1.15;;;21.40;48.20;;;;;;4919718;29;20177;-82
2021/06/16 05:09:48;;;;;;;1.05;1.05;;;21.40;48.20;;;;;;4935335;29;20186;-82
2021/06/16 05:12:18;;;;;;;1.20;1.10;;;21.40;48.30;;;;;;4951107;29;20193;-82
2021/06/16 05:14:48;;;;;;;1.13;1.00;;;21.40;48.10;;;;;;4935132;29;20196;-82
2021/06/16 05:17:18;;;;;;;2.30;0.98;;;21.40;48.10;;;;;;4934574;29;20185;-83
2021/06/16 05:19:46;;;;;;;1.30;1.20;;;21.30;48.10;;;;;;4935929;28;20180;-82
2021/06/16 05:22:16;;;;;;;1.35;1.10;;;21.40;48.00;;;;;;4919254;29;20253;-82
2021/06/16 05:24:46;;;;;;;1.08;1.00;;;21.50;48.00;;;;;;4935017;29;20649;-82
2021/06/16 05:27:16;;;;;;;1.10;1.10;;;21.40;48.00;;;;;;4929549;29;20198;-82
2021/06/16 05:29:46;;;;;;;1.30;1.08;;;21.40;48.00;;;;;;4912415;29;20222;-82
2021/06/16 05:32:15;;;;;;;1.27;1.10;;;21.40;48.00;;;;;;4912904;29;20250;-82
2021/06/16 05:34:45;;;;;;;1.30;1.20;;;21.50;48.00;;;;;;4928451;29;20200;-83
2021/06/16 05:37:13;;;;;;;1.20;1.10;;;21.50;48.00;;;;;;4927312;29;20193;-82
2021/06/16 05:39:41;;;;;;;1.30;1.20;;;21.50;48.00;;;;;;4912078;29;20259;-82
2021/06/16 05:42:08;;;;;;;1.23;1.10;;;21.50;47.90;;;;;;4895890;29;20277;-83
2021/06/16 05:44:36;;;;;;;1.25;1.15;;;21.50;48.00;;;;;;4912825;29;20183;-83
2021/06/16 05:47:06;;;;;;;1.30;1.20;;;21.60;47.90;;;;;;4911821;29;20187;-83
2021/06/16 05:49:33;;;;;;;1.17;1.00;;;21.50;48.10;;;;;;4912061;29;20663;-81
2021/06/16 05:52:01;;;;;;;1.20;1.10;;;21.50;47.90;;;;;;4928247;29;20183;-82
2021/06/16 05:54:30;;;;;;;1.45;1.00;;;21.50;47.90;;;;;;4912403;29;20258;-83
2021/06/16 05:56:58;;;;;;;1.30;1.17;;;21.60;48.00;;;;;;4912812;29;20215;-83
2021/06/16 05:59:25;;;;;;;1.20;1.10;;;21.50;48.00;;;;;;4927962;29;20270;-83
2021/06/16 06:01:55;;;;;;;1.00;0.95;;;21.50;48.00;;;;;;4928275;29;20222;-83
2021/06/16 06:04:22;;;;;;;1.15;1.02;;;21.50;48.10;;;;;;4928454;29;20182;-82
2021/06/16 06:06:49;;;;;;;0.93;0.93;;;21.60;48.00;;;;;;4912173;29;20191;-82
2021/06/16 06:09:16;;;;;;;1.35;1.20;;;21.50;47.90;;;;;;4903304;29;20193;-81
2021/06/16 06:11:42;;;;;;;1.00;0.90;;;21.60;48.00;;;;;;4915360;29;20198;-82
2021/06/16 06:14:09;;;;;;;1.25;1.10;;;21.50;48.00;;;;;;4899438;29;20183;-82
2021/06/16 06:16:36;;;;;;;1.27;1.15;;;21.60;48.00;;;;;;4915442;29;20210;-83
2021/06/16 06:19:03;;;;;;;1.20;1.10;;;21.60;48.10;;;;;;4935403;29;20226;-83
2021/06/16 06:21:31;;;;;;;1.30;1.00;;;21.50;47.90;;;;;;4920723;29;20634;-84
2021/06/16 06:24:02;;;;;;;1.17;1.08;;;21.60;48.00;;;;;;4920047;29;20646;-84
2021/06/16 06:26:28;;;;;;;1.10;1.00;;;21.60;48.00;;;;;;4909308;29;20685;-83
2021/06/16 06:28:54;;;;;;;1.20;1.10;;;21.60;48.10;;;;;;4926409;29;20167;-83
2021/06/16 06:31:25;;;;;;;1.10;1.00;;;21.60;48.00;;;;;;4927710;29;20182;-84
2021/06/16 06:33:51;;;;;;;1.17;1.10;;;21.60;47.90;;;;;;4926565;29;20191;-83
2021/06/16 06:36:21;;;;;;;1.00;1.00;;;21.60;48.00;;;;;;4926926;29;20167;-83
2021/06/16 06:38:51;;;;;;;1.30;1.20;;;21.60;48.10;;;;;;4908118;29;20194;-82
2021/06/16 06:41:18;;;;;;;1.00;0.90;;;21.70;48.00;;;;;;4890411;29;20251;-82
2021/06/16 06:43:44;;;;;;;1.20;1.00;;;21.70;48.00;;;;;;4921190;29;20179;-81
2021/06/16 06:46:10;;;;;;;1.40;1.13;;;21.70;48.00;;;;;;4917709;29;20646;-81
2021/06/16 06:48:36;;;;;;;0.90;0.90;;;21.70;48.00;;;;;;4935223;29;20219;-82
2021/06/16 06:51:01;;;;;;;2.13;1.13;;;21.60;48.10;;;;;;4922317;29;20585;-81
2021/06/16 06:53:29;;;;;;;2.38;1.10;;;21.70;48.60;;;;;;4922149;29;20654;-81
2021/06/16 06:55:56;;;;;;;1.13;0.90;;;21.60;48.10;;;;;;4920284;29;20207;-80
2021/06/16 06:58:23;;;;;;;1.67;1.00;;;21.70;48.00;;;;;;4921399;29;20182;-80
2021/06/16 07:00:49;;;;;;;1.20;1.10;;;21.70;47.90;;;;;;4921006;29;20251;-80
2021/06/16 07:03:14;;;;;;;2.05;0.90;;;21.70;48.00;;;;;;4920451;29;20152;-81
2021/06/16 07:05:41;;;;;;;1.30;1.20;;;21.70;47.80;;;;;;4920611;29;20162;-80
2021/06/16 07:08:07;;;;;;;1.23;1.05;;;21.70;48.00;;;;;;4920452;29;20151;-80
2021/06/16 07:10:32;;;;;;;1.35;1.00;;;21.70;48.00;;;;;;4920661;29;20158;-81
2021/06/16 07:12:58;;;;;;;1.90;1.20;;;21.70;47.80;;;;;;4919138;29;20185;-80
2021/06/16 07:15:24;;;;;;;1.75;1.08;;;21.70;48.30;;;;;;4920416;29;20162;-79
2021/06/16 07:17:50;;;;;;;1.40;1.20;;;21.70;48.40;;;;;;4920374;29;20159;-80
2021/06/16 07:20:16;;;;;;;0.93;0.82;;;21.60;48.20;;;;;;4919065;29;20159;-80
2021/06/16 07:22:44;;;;;;;2.45;1.13;;;21.70;48.00;;;;;;4919696;29;20186;-81
2021/06/16 07:25:09;;;;;;;1.15;0.90;;;21.60;48.20;;;;;;4926725;29;20245;-80
2021/06/16 07:27:35;;;;;;;2.22;1.25;;;21.60;48.10;;;;;;4958545;29;20518;-81
2021/06/16 07:30:01;;;;;;;1.15;1.05;;;21.60;48.50;;;;;;4958109;29;20164;-82
2021/06/16 07:32:27;;;;;;;1.45;0.85;;;21.60;48.20;;;;;;4958431;29;20267;-80
2021/06/16 07:34:53;;;;;;;1.95;1.23;;;21.60;48.30;;;;;;4956883;29;20162;-80
2021/06/16 07:37:19;;;;;;;1.67;1.10;;;21.50;48.50;;;;;;4958194;29;20194;-80
2021/06/16 07:39:45;;;;;;;1.58;1.10;;;21.50;48.50;;;;;;4958665;29;20613;-80
2021/06/16 07:42:12;;;;;;;2.08;1.10;;;21.50;48.70;;;;;;4958243;29;20192;-81
2021/06/16 07:44:38;;;;;;;1.25;0.93;;;21.50;48.70;;;;;;4956704;29;20168;-80
2021/06/16 07:47:04;;;;;;;2.50;1.50;;;21.50;48.80;;;;;;4958194;28;20625;-80
2021/06/16 07:49:30;;;;;;;4.72;1.60;;;21.50;48.50;;;;;;4958154;29;20158;-79
2021/06/16 07:51:59;;;;;;;6.75;1.70;;;21.40;48.60;;;;;;4957914;29;20613;-79
2021/06/16 07:54:29;;;;;;;8.95;2.00;;;21.50;48.60;;;;;;4960613;28;20166;-79
2021/06/16 07:56:55;;;;;;;11.40;2.05;;;21.50;48.70;;;;;;4914471;29;20194;-78
2021/06/16 07:59:21;;;;;;;14.30;1.98;;;21.50;48.90;;;;;;4957671;28;20180;-79
2021/06/16 08:01:48;;;;;;;26.80;2.53;;;21.50;48.70;;;;;;4959332;29;20189;-79
2021/06/16 08:04:15;;;;;;;11.68;2.58;;;21.50;48.90;;;;;;4963069;28;20166;-79
2021/06/16 08:06:41;;;;;;;18.92;2.42;;;21.50;49.00;;;;;;4964411;28;20165;-78
2021/06/16 08:09:06;;;;;;;38.42;3.47;;;21.40;49.00;;;;;;4960722;29;20591;-81
2021/06/16 08:11:32;;;;;;;20.17;2.53;;;21.50;48.90;;;;;;4959538;29;20548;-80
2021/06/16 08:13:58;;;;;;;20.20;2.75;;;21.50;48.90;;;;;;4960255;29;20169;-80
2021/06/16 08:16:28;;;;;;;29.10;3.63;;;21.50;48.80;;;;;;4962045;29;20161;-78
2021/06/16 08:18:58;;;;;;;31.30;3.45;;;21.60;48.90;;;;;;4928068;29;20190;-80
2021/06/16 08:21:24;;;;;;;28.73;2.70;;;21.50;48.90;;;;;;4941126;29;20296;-80
2021/06/16 08:23:50;;;;;;;23.70;2.65;;;21.60;48.90;;;;;;4956809;29;20200;-79
2021/06/16 08:26:16;;;;;;;12.20;2.10;;;21.60;48.80;;;;;;4958693;29;20228;-79
2021/06/16 08:28:47;;;;;;;13.60;2.28;;;21.70;48.60;;;;;;4962950;29;20185;-78
2021/06/16 08:31:13;;;;;;;12.80;2.17;;;21.70;48.70;;;;;;4948055;29;20245;-78
2021/06/16 08:33:43;;;;;;;17.65;2.22;;;21.60;48.60;;;;;;4960875;29;20196;-80
2021/06/16 08:36:14;;;;;;;13.80;2.25;;;21.60;48.70;;;;;;4945727;29;20189;-81
2021/06/16 08:38:45;;;;;;;10.75;1.88;;;21.50;48.90;;;;;;4933911;29;20224;-78
2021/06/16 08:41:11;;;;;;;13.55;1.98;;;21.50;49.00;;;;;;4934849;29;20209;-81
2021/06/16 08:43:39;;;;;;;8.02;1.65;;;21.50;49.00;;;;;;4965268;29;20164;-80
2021/06/16 08:46:12;;;;;;;11.00;1.80;;;21.50;49.10;;;;;;4951211;29;20161;-81
2021/06/16 08:48:42;;;;;;;14.23;2.03;;;21.60;48.90;;;;;;4951371;29;20189;-80
2021/06/16 08:51:09;;;;;;;11.68;1.95;;;21.60;48.90;;;;;;4919866;29;20241;-81
2021/06/16 08:53:35;;;;;;;6.57;1.60;;;21.60;49.10;;;;;;4958705;29;20180;-81
2021/06/16 08:56:01;;;;;;;8.63;2.10;;;21.60;48.90;;;;;;4958860;29;20161;-80
2021/06/16 08:58:27;;;;;;;8.00;1.83;;;21.70;48.80;;;;;;4962468;29;20153;-82
2021/06/16 09:00:53;;;;;;;10.00;1.67;;;21.60;48.70;;;;;;4969407;28;20216;-81
2021/06/16 09:03:26;;;;;;;9.75;2.03;;;21.70;48.90;;;;;;4967393;29;20196;-81
2021/06/16 09:05:53;;;;;;;6.10;1.60;;;21.70;48.70;;;;;;4967213;28;20258;-81
2021/06/16 09:08:28;;;;;;;12.30;2.03;;;21.70;48.70;;;;;;4967583;28;20165;-80
2021/06/16 09:10:58;;;;;;;5.80;1.52;;;21.70;48.70;;;;;;4932851;29;20192;-81
2021/06/16 09:13:27;;;;;;;4.93;1.70;;;21.70;48.90;;;;;;4935292;29;20185;-81
2021/06/16 09:15:59;;;;;;;7.90;1.90;;;21.60;48.90;;;;;;4965287;29;20241;-81
2021/06/16 09:18:28;;;;;;;5.45;1.45;;;21.60;49.00;;;;;;4949553;29;20196;-82
2021/06/16 09:20:56;;;;;;;6.38;1.65;;;21.60;48.90;;;;;;4948178;29;20675;-81
2021/06/16 09:23:31;;;;;;;4.82;1.40;;;21.60;49.00;;;;;;4960726;29;20166;-83
2021/06/16 09:26:12;;;;;;;10.90;2.17;;;21.60;49.00;;;;;;4943857;29;20224;-81
2021/06/16 09:28:48;;;;;;;7.28;1.80;;;21.60;49.00;;;;;;4960941;28;20211;-82
2021/06/16 09:31:14;;;;;;;4.65;1.40;;;21.60;49.00;;;;;;4960055;29;20153;-82
2021/06/16 09:33:41;;;;;;;5.68;1.63;;;21.60;48.80;;;;;;4959186;28;20173;-83
2021/06/16 09:36:13;;;;;;;3.88;1.75;;;21.60;49.00;;;;;;4974823;28;20174;-83
2021/06/16 09:38:40;;;;;;;8.45;1.73;;;21.60;49.10;;;;;;4943120;29;20217;-80
2021/06/16 09:41:10;;;;;;;6.43;1.42;;;21.60;49.10;;;;;;4958523;28;20188;-83
2021/06/16 09:43:36;;;;;;;6.82;1.52;;;21.60;49.10;;;;;;4956886;28;20185;-82
2021/06/16 09:46:03;;;;;;;7.25;1.42;;;21.60;48.90;;;;;;4955010;29;20175;-82
2021/06/16 09:48:34;;;;;;;5.43;1.40;;;21.70;48.80;;;;;;4955590;29;20154;-82
2021/06/16 09:51:13;;;;;;;5.15;1.90;;;21.80;48.80;;;;;;4954888;29;20224;-82
2021/06/16 09:54:19;;;;;;;2.67;1.27;;;21.80;48.80;;;;;;4954975;29;20153;-82
2021/06/16 09:56:54;;;;;;;2.88;1.33;;;21.80;48.60;;;;;;4956823;28;20192;-82
2021/06/16 09:59:38;;;;;;;4.00;1.80;;;21.80;48.50;;;;;;4955653;29;20195;-82
2021/06/16 10:02:04;;;;;;;3.65;1.58;;;21.80;48.60;;;;;;4960361;28;20193;-82
2021/06/16 10:04:42;;;;;;;7.25;1.70;;;21.80;48.60;;;;;;4958655;29;20166;-81
2021/06/16 10:07:11;;;;;;;6.38;1.85;;;21.80;48.60;;;;;;4956959;29;20217;-81
2021/06/16 10:09:50;;;;;;;19.05;2.63;;;21.80;48.60;;;;;;4958085;28;20248;-82
2021/06/16 10:12:24;;;;;;;13.48;2.58;;;21.90;48.50;;;;;;4944685;29;20185;-81
2021/06/16 10:14:54;;;;;;;14.90;2.55;;;21.80;48.30;;;;;;4929204;29;20188;-82
2021/06/16 10:17:21;;;;;;;27.27;3.03;;;21.90;48.40;;;;;;4942543;29;20190;-82
2021/06/16 10:19:47;;;;;;;22.15;2.67;;;21.90;48.40;;;;;;4956789;29;20162;-80
2021/06/16 10:22:13;;;;;;;13.05;2.88;;;21.90;48.50;;;;;;4962231;28;20185;-81
2021/06/16 10:24:39;;;;;;;15.10;2.72;;;22.00;48.50;;;;;;4948904;29;20188;-81
2021/06/16 10:27:13;;;;;;;21.98;2.60;;;22.00;48.50;;;;;;4966051;29;20221;-81
2021/06/16 10:29:41;;;;;;;13.70;2.55;;;21.90;48.60;;;;;;4946643;29;20235;-81
2021/06/16 10:32:08;;;;;;;11.70;2.38;;;22.00;48.50;;;;;;4964361;28;20419;-82
2021/06/16 10:34:57;;;;;;;15.38;2.25;;;22.00;48.50;;;;;;4961676;28;20252;-82
2021/06/16 10:37:28;;;;;;;16.05;2.60;;;22.00;48.50;;;;;;4960151;29;20196;-81
2021/06/16 10:40:17;;;;;;;18.65;2.42;;;22.00;48.40;;;;;;4943460;29;20208;-82
2021/06/16 10:43:17;;;;;;;16.00;2.20;;;21.90;49.10;;;;;;4960357;28;20197;-82
2021/06/16 10:45:50;;;;;;;10.07;1.90;;;21.90;48.50;;;;;;4959478;29;20637;-82
2021/06/16 10:48:16;;;;;;;15.45;2.33;;;22.00;48.40;;;;;;4960150;28;20228;-82
2021/06/16 10:50:59;;;;;;;11.63;1.98;;;22.00;48.40;;;;;;4959122;29;20158;-82
2021/06/16 10:53:25;;;;;;;8.73;1.52;;;22.00;48.30;;;;;;4959610;29;20651;-82
2021/06/16 10:56:08;;;;;;;5.30;1.90;;;22.00;48.20;;;;;;4961380;29;20533;-82
2021/06/16 10:58:44;;;;;;;12.13;2.58;;;22.10;48.10;;;;;;4942183;29;20213;-81
2021/06/16 11:01:18;;;;;;;15.88;2.45;;;22.10;48.20;;;;;;4959209;29;20189;-81
2021/06/16 11:04:04;;;;;;;12.23;2.55;;;22.00;48.20;;;;;;4958948;28;20625;-82
2021/06/16 11:06:38;;;;;;;12.65;1.92;;;22.00;49.00;;;;;;4958289;29;20158;-81
2021/06/16 11:09:19;;;;;;;11.88;2.42;;;22.00;48.20;;;;;;4960871;28;20161;-82
2021/06/16 11:12:06;;;;;;;5.50;1.55;;;22.10;48.30;;;;;;4961582;29;20161;-81
2021/06/16 11:14:47;;;;;;;10.20;1.95;;;22.00;48.40;;;;;;4960790;28;20168;-81
2021/06/16 11:17:38;;;;;;;10.02;2.00;;;22.00;48.20;;;;;;4928731;29;20676;-82
2021/06/16 11:20:06;;;;;;;9.32;2.00;;;22.00;48.20;;;;;;4960407;29;20208;-82
2021/06/16 11:22:38;;;;;;;8.75;1.92;;;22.00;48.20;;;;;;4960156;28;20217;-81
2021/06/16 11:25:26;;;;;;;8.43;2.22;;;22.00;48.20;;;;;;4942675;29;20189;-82
2021/06/16 11:28:15;;;;;;;7.10;1.58;;;22.00;48.10;;;;;;4965047;29;20173;-81
2021/06/16 11:31:02;;;;;;;10.10;1.80;;;22.10;48.90;;;;;;4965539;29;20228;-81
2021/06/16 11:33:34;;;;;;;7.00;1.85;;;22.10;48.20;;;;;;4963619;28;20165;-81
2021/06/16 11:36:11;;;;;;;8.23;2.08;;;22.20;48.00;;;;;;4932123;29;20193;-80
2021/06/16 11:38:42;;;;;;;5.60;1.60;;;22.20;48.00;;;;;;4958858;29;20149;-81
2021/06/16 11:41:21;;;;;;;6.40;1.90;;;22.10;48.10;;;;;;4959643;29;20541;-82
2021/06/16 11:43:51;;;;;;;9.57;1.58;;;22.10;48.10;;;;;;4960048;28;20189;-81
2021/06/16 11:46:30;;;;;;;4.97;1.55;;;22.10;48.20;;;;;;4958373;28;20154;-81
2021/06/16 11:49:05;;;;;;;5.68;1.55;;;22.10;48.20;;;;;;4958195;29;20167;-81
2021/06/16 11:51:34;;;;;;;5.57;1.90;;;22.10;48.30;;;;;;4957065;29;20180;-81
2021/06/16 11:54:19;;;;;;;7.38;1.95;;;22.00;48.40;;;;;;4958644;28;20157;-81
2021/06/16 11:57:11;;;;;;;9.07;1.80;;;21.90;48.20;;;;;;4948350;29;20177;-83
2021/06/16 11:59:52;;;;;;;7.10;1.65;;;22.00;48.00;;;;;;4945921;29;20181;-84
2021/06/16 12:02:34;;;;;;;4.88;1.70;;;22.00;48.10;;;;;;4965271;28;20185;-84
2021/06/16 12:05:07;;;;;;;4.50;1.33;;;22.00;48.00;;;;;;4965398;29;20209;-82
2021/06/16 12:07:39;;;;;;;5.72;1.92;;;22.00;47.60;;;;;;4951872;29;20185;-83
2021/06/16 12:10:15;;;;;;;4.55;1.60;;;22.00;48.40;;;;;;4945563;29;20165;-84
2021/06/16 12:12:55;;;;;;;4.28;1.55;;;22.00;48.20;;;;;;4948084;29;20293;-83
2021/06/16 12:15:30;;;;;;;3.20;1.50;;;22.00;47.80;;;;;;4967963;29;20648;-82
2021/06/16 12:18:10;;;;;;;4.05;1.58;;;22.00;48.00;;;;;;4909767;29;20188;-82
2021/06/16 12:20:47;;;;;;;2.03;1.35;;;22.00;48.30;;;;;;4875142;29;20184;-82
2021/06/16 12:23:42;;;;;;;;;;;;;;;;;;;;;
2021/06/16 12:26:29;;;;;;;4.22;1.58;;;22.00;47.90;;;;;;4902255;29;20701;-83
2021/06/16 12:28:57;;;;;;;5.78;1.80;;;22.10;48.00;;;;;;4867673;29;20231;-83
2021/06/16 12:31:35;;;;;;;5.40;1.50;;;22.10;48.20;;;;;;4907745;29;20187;-82
2021/06/16 12:34:17;;;;;;;4.22;1.55;;;22.10;47.70;;;;;;4893289;29;20258;-84
2021/06/16 12:36:46;;;;;;;3.67;1.50;;;22.00;48.20;;;;;;4863294;29;20194;-83
2021/06/16 12:39:25;;;;;;;5.03;1.55;;;22.10;47.70;;;;;;4907259;29;20199;-82
2021/06/16 12:41:53;;;;;;;5.45;1.75;;;22.10;47.50;;;;;;4865585;29;20699;-82
2021/06/16 12:44:35;;;;;;;7.63;1.73;;;22.10;47.90;;;;;;4910061;29;20187;-81
2021/06/16 12:47:23;;;;;;;5.63;1.65;;;22.10;47.70;;;;;;4901670;29;20195;-84
2021/06/16 12:49:53;;;;;;;5.85;1.65;;;22.10;47.60;;;;;;4843737;29;20292;-84
2021/06/16 12:52:32;;;;;;;3.47;1.50;;;22.10;47.80;;;;;;4899285;29;20187;-82
2021/06/16 12:55:12;;;;;;;5.05;1.40;;;22.10;48.00;;;;;;4885302;29;20186;-83
2021/06/16 12:57:43;;;;;;;3.22;1.63;;;22.10;48.20;;;;;;4900199;29;20636;-86
2021/06/16 13:00:12;;;;;;;4.45;1.45;;;22.10;47.60;;;;;;4888489;29;20266;-85
2021/06/16 13:02:39;;;;;;;3.05;1.50;;;22.20;47.30;;;;;;4936701;29;20220;-84